sensor_id;sensor_type;location;lat;lon;timestamp;pressure;altitude;pressure_sealevel;temperature;humidity
62025;BME280;47978;49.118;12.146;2022-10-22T00:01:05;97240.81;;;11.11;97.56
62025;BME280;47978;49.118;12.146;2022-10-22T00:03:32;97244.53;;;11.06;98.13
62025;BME280;47978;49.118;12.146;2022-10-22T00:05:58;97243.75;;;11.14;97.69
62025;BME280;47978;49.118;12.146;2022-10-22T00:08:25;97248.56;;;11.00;98.49
62025;BME280;47978;49.118;12.146;2022-10-22T00:10:52;97235.22;;;11.02;98.71
62025;BME280;47978;49.118;12.146;2022-10-22T00:13:20;97233.63;;;11.10;98.53
62025;BME280;47978;49.118;12.146;2022-10-22T00:15:47;97230.72;;;11.15;98.02
62025;BME280;47978;49.118;12.146;2022-10-22T00:18:14;97241.44;;;11.08;98.38
62025;BME280;47978;49.118;12.146;2022-10-22T00:20:40;97240.47;;;11.12;98.28
62025;BME280;47978;49.118;12.146;2022-10-22T00:23:07;97234.38;;;11.24;98.06
62025;BME280;47978;49.118;12.146;2022-10-22T00:25:34;97239.22;;;11.18;98.29
62025;BME280;47978;49.118;12.146;2022-10-22T00:28:01;97227.72;;;11.25;98.25
62025;BME280;47978;49.118;12.146;2022-10-22T00:30:29;97230.66;;;11.29;98.09
62025;BME280;47978;49.118;12.146;2022-10-22T00:32:56;97229.63;;;11.16;98.41
62025;BME280;47978;49.118;12.146;2022-10-22T00:35:22;97220.03;;;11.22;98.33
62025;BME280;47978;49.118;12.146;2022-10-22T00:37:49;97216.81;;;11.29;98.10
62025;BME280;47978;49.118;12.146;2022-10-22T00:40:15;97227.84;;;11.20;98.64
62025;BME280;47978;49.118;12.146;2022-10-22T00:42:42;97231.25;;;11.17;98.99
62025;BME280;47978;49.118;12.146;2022-10-22T00:45:17;97227.53;;;11.21;98.71
62025;BME280;47978;49.118;12.146;2022-10-22T00:47:48;97228.66;;;11.20;98.62
62025;BME280;47978;49.118;12.146;2022-10-22T00:50:16;97221.78;;;11.18;98.90
62025;BME280;47978;49.118;12.146;2022-10-22T00:52:45;97229.47;;;11.21;99.13
62025;BME280;47978;49.118;12.146;2022-10-22T00:55:12;97224.13;;;11.24;98.92
62025;BME280;47978;49.118;12.146;2022-10-22T00:57:39;97222.81;;;11.22;98.69
62025;BME280;47978;49.118;12.146;2022-10-22T01:00:08;97225.31;;;11.10;99.44
62025;BME280;47978;49.118;12.146;2022-10-22T01:02:35;97221.50;;;11.19;99.19
62025;BME280;47978;49.118;12.146;2022-10-22T01:05:04;97219.91;;;11.27;98.87
62025;BME280;47978;49.118;12.146;2022-10-22T01:07:31;97218.25;;;11.26;98.95
62025;BME280;47978;49.118;12.146;2022-10-22T01:10:08;97225.38;;;11.18;99.35
62025;BME280;47978;49.118;12.146;2022-10-22T01:12:42;97237.75;;;11.21;99.49
62025;BME280;47978;49.118;12.146;2022-10-22T01:15:18;97243.31;;;11.21;99.41
62025;BME280;47978;49.118;12.146;2022-10-22T01:17:54;97224.13;;;11.24;99.31
62025;BME280;47978;49.118;12.146;2022-10-22T01:20:45;97222.34;;;11.29;99.37
62025;BME280;47978;49.118;12.146;2022-10-22T01:23:20;97209.19;;;11.34;98.79
62025;BME280;47978;49.118;12.146;2022-10-22T01:25:53;97215.19;;;11.28;98.62
62025;BME280;47978;49.118;12.146;2022-10-22T01:28:38;97219.78;;;11.10;100.00
62025;BME280;47978;49.118;12.146;2022-10-22T01:31:10;97218.91;;;11.23;99.36
62025;BME280;47978;49.118;12.146;2022-10-22T01:33:39;97217.41;;;11.17;99.45
62025;BME280;47978;49.118;12.146;2022-10-22T01:36:06;97223.88;;;11.12;100.00
62025;BME280;47978;49.118;12.146;2022-10-22T01:38:35;97218.56;;;11.16;100.00
62025;BME280;47978;49.118;12.146;2022-10-22T01:41:01;97216.91;;;11.15;100.00
62025;BME280;47978;49.118;12.146;2022-10-22T01:43:28;97217.28;;;11.22;100.00
62025;BME280;47978;49.118;12.146;2022-10-22T01:45:59;97211.09;;;11.25;100.00
62025;BME280;47978;49.118;12.146;2022-10-22T01:48:34;97221.50;;;11.19;100.00
62025;BME280;47978;49.118;12.146;2022-10-22T01:51:17;97229.22;;;11.09;100.00
62025;BME280;47978;49.118;12.146;2022-10-22T01:53:49;97232.56;;;11.19;100.00
62025;BME280;47978;49.118;12.146;2022-10-22T01:56:32;97235.34;;;11.19;100.00
62025;BME280;47978;49.118;12.146;2022-10-22T01:59:05;97231.41;;;11.20;100.00
62025;BME280;47978;49.118;12.146;2022-10-22T02:01:41;97232.91;;;11.26;100.00
62025;BME280;47978;49.118;12.146;2022-10-22T02:04:16;97216.19;;;11.32;100.00
62025;BME280;47978;49.118;12.146;2022-10-22T02:06:44;97222.53;;;11.32;100.00
62025;BME280;47978;49.118;12.146;2022-10-22T02:09:14;97227.75;;;11.34;100.00
62025;BME280;47978;49.118;12.146;2022-10-22T02:11:43;97217.00;;;11.32;100.00
62025;BME280;47978;49.118;12.146;2022-10-22T02:14:10;97211.97;;;11.34;100.00
62025;BME280;47978;49.118;12.146;2022-10-22T02:16:42;97202.84;;;11.34;100.00
62025;BME280;47978;49.118;12.146;2022-10-22T02:19:14;97204.81;;;11.33;100.00
62025;BME280;47978;49.118;12.146;2022-10-22T02:21:44;97198.13;;;11.34;100.00
62025;BME280;47978;49.118;12.146;2022-10-22T02:24:11;97195.53;;;11.38;100.00
62025;BME280;47978;49.118;12.146;2022-10-22T02:26:41;97188.31;;;11.28;100.00
62025;BME280;47978;49.118;12.146;2022-10-22T02:29:14;97197.28;;;11.25;100.00
62025;BME280;47978;49.118;12.146;2022-10-22T02:31:46;97202.28;;;11.23;100.00
62025;BME280;47978;49.118;12.146;2022-10-22T02:34:19;97204.94;;;11.28;100.00
62025;BME280;47978;49.118;12.146;2022-10-22T02:36:47;97222.19;;;11.25;100.00
62025;BME280;47978;49.118;12.146;2022-10-22T02:39:16;97230.66;;;11.29;100.00
62025;BME280;47978;49.118;12.146;2022-10-22T02:41:44;97231.34;;;11.34;100.00
62025;BME280;47978;49.118;12.146;2022-10-22T02:44:11;97242.41;;;11.34;100.00
62025;BME280;47978;49.118;12.146;2022-10-22T02:46:38;97246.81;;;11.35;100.00
62025;BME280;47978;49.118;12.146;2022-10-22T02:49:07;97258.22;;;11.34;100.00
62025;BME280;47978;49.118;12.146;2022-10-22T02:51:33;97266.00;;;11.32;100.00
62025;BME280;47978;49.118;12.146;2022-10-22T02:54:00;97267.84;;;11.36;100.00
62025;BME280;47978;49.118;12.146;2022-10-22T02:56:26;97271.59;;;11.40;100.00
62025;BME280;47978;49.118;12.146;2022-10-22T02:58:53;97264.09;;;11.41;100.00
62025;BME280;47978;49.118;12.146;2022-10-22T03:01:20;97250.94;;;11.46;100.00
62025;BME280;47978;49.118;12.146;2022-10-22T03:03:46;97251.91;;;11.42;100.00
62025;BME280;47978;49.118;12.146;2022-10-22T03:06:15;97256.63;;;11.41;100.00
62025;BME280;47978;49.118;12.146;2022-10-22T03:08:41;97254.16;;;11.40;100.00
62025;BME280;47978;49.118;12.146;2022-10-22T03:11:08;97253.88;;;11.41;100.00
62025;BME280;47978;49.118;12.146;2022-10-22T03:13:35;97256.97;;;11.48;100.00
62025;BME280;47978;49.118;12.146;2022-10-22T03:16:01;97240.38;;;11.48;100.00
62025;BME280;47978;49.118;12.146;2022-10-22T03:18:28;97242.50;;;11.52;100.00
62025;BME280;47978;49.118;12.146;2022-10-22T03:21:06;97229.28;;;11.48;100.00
62025;BME280;47978;49.118;12.146;2022-10-22T03:23:34;97231.94;;;11.54;100.00
62025;BME280;47978;49.118;12.146;2022-10-22T03:26:01;97226.44;;;11.62;100.00
62025;BME280;47978;49.118;12.146;2022-10-22T03:28:29;97233.59;;;11.63;100.00
62025;BME280;47978;49.118;12.146;2022-10-22T03:30:56;97229.50;;;11.61;100.00
62025;BME280;47978;49.118;12.146;2022-10-22T03:33:22;97235.03;;;11.61;100.00
62025;BME280;47978;49.118;12.146;2022-10-22T03:35:49;97227.56;;;11.61;100.00
62025;BME280;47978;49.118;12.146;2022-10-22T03:38:16;97228.06;;;11.63;100.00
62025;BME280;47978;49.118;12.146;2022-10-22T03:40:45;97238.31;;;11.63;100.00
62025;BME280;47978;49.118;12.146;2022-10-22T03:43:12;97246.50;;;11.68;100.00
62025;BME280;47978;49.118;12.146;2022-10-22T03:45:38;97227.28;;;11.71;100.00
62025;BME280;47978;49.118;12.146;2022-10-22T03:48:05;97216.53;;;11.70;100.00
62025;BME280;47978;49.118;12.146;2022-10-22T03:50:32;97205.44;;;11.70;100.00
62025;BME280;47978;49.118;12.146;2022-10-22T03:52:58;97212.31;;;11.73;100.00
62025;BME280;47978;49.118;12.146;2022-10-22T03:55:25;97233.31;;;11.74;100.00
62025;BME280;47978;49.118;12.146;2022-10-22T03:57:53;97253.22;;;11.76;100.00
62025;BME280;47978;49.118;12.146;2022-10-22T04:00:20;97268.81;;;11.71;100.00
62025;BME280;47978;49.118;12.146;2022-10-22T04:02:46;97276.09;;;11.59;100.00
62025;BME280;47978;49.118;12.146;2022-10-22T04:05:13;97289.31;;;11.62;100.00
62025;BME280;47978;49.118;12.146;2022-10-22T04:07:45;97304.97;;;11.66;100.00
62025;BME280;47978;49.118;12.146;2022-10-22T04:10:11;97303.50;;;11.69;100.00
62025;BME280;47978;49.118;12.146;2022-10-22T04:12:38;97300.88;;;11.64;100.00
62025;BME280;47978;49.118;12.146;2022-10-22T04:15:07;97304.97;;;11.66;100.00
62025;BME280;47978;49.118;12.146;2022-10-22T04:17:34;97299.28;;;11.71;100.00
62025;BME280;47978;49.118;12.146;2022-10-22T04:20:03;97294.22;;;11.65;100.00
62025;BME280;47978;49.118;12.146;2022-10-22T04:22:32;97291.09;;;11.66;100.00
62025;BME280;47978;49.118;12.146;2022-10-22T04:24:59;97288.03;;;11.68;100.00
62025;BME280;47978;49.118;12.146;2022-10-22T04:27:29;97275.94;;;11.64;100.00
62025;BME280;47978;49.118;12.146;2022-10-22T04:29:56;97270.75;;;11.62;100.00
62025;BME280;47978;49.118;12.146;2022-10-22T04:32:24;97282.63;;;11.63;100.00
62025;BME280;47978;49.118;12.146;2022-10-22T04:34:50;97294.72;;;11.67;100.00
62025;BME280;47978;49.118;12.146;2022-10-22T04:37:17;97291.94;;;11.67;100.00
62025;BME280;47978;49.118;12.146;2022-10-22T04:39:43;97295.53;;;11.67;100.00
62025;BME280;47978;49.118;12.146;2022-10-22T04:42:10;97287.91;;;11.73;100.00
62025;BME280;47978;49.118;12.146;2022-10-22T04:44:37;97281.22;;;11.74;100.00
62025;BME280;47978;49.118;12.146;2022-10-22T04:47:03;97265.25;;;11.71;100.00
62025;BME280;47978;49.118;12.146;2022-10-22T04:49:31;97272.09;;;11.74;100.00
62025;BME280;47978;49.118;12.146;2022-10-22T04:51:58;97283.34;;;11.77;100.00
62025;BME280;47978;49.118;12.146;2022-10-22T04:54:24;97297.84;;;11.74;100.00
62025;BME280;47978;49.118;12.146;2022-10-22T04:56:57;97299.78;;;11.74;100.00
62025;BME280;47978;49.118;12.146;2022-10-22T04:59:24;97291.16;;;11.75;100.00
62025;BME280;47978;49.118;12.146;2022-10-22T05:01:50;97301.13;;;11.76;100.00
62025;BME280;47978;49.118;12.146;2022-10-22T05:04:17;97306.19;;;11.83;100.00
62025;BME280;47978;49.118;12.146;2022-10-22T05:06:45;97308.91;;;11.74;100.00
62025;BME280;47978;49.118;12.146;2022-10-22T05:09:14;97307.28;;;11.73;100.00
62025;BME280;47978;49.118;12.146;2022-10-22T05:11:43;97324.56;;;11.70;100.00
62025;BME280;47978;49.118;12.146;2022-10-22T05:14:10;97319.66;;;11.67;100.00
62025;BME280;47978;49.118;12.146;2022-10-22T05:16:37;97335.63;;;11.70;100.00
62025;BME280;47978;49.118;12.146;2022-10-22T05:19:05;97339.03;;;11.67;100.00
62025;BME280;47978;49.118;12.146;2022-10-22T05:21:33;97335.94;;;11.68;100.00
62025;BME280;47978;49.118;12.146;2022-10-22T05:24:01;97333.16;;;11.68;100.00
62025;BME280;47978;49.118;12.146;2022-10-22T05:26:28;97338.34;;;11.61;100.00
62025;BME280;47978;49.118;12.146;2022-10-22T05:28:55;97354.63;;;11.63;100.00
62025;BME280;47978;49.118;12.146;2022-10-22T05:31:22;97364.72;;;11.59;100.00
62025;BME280;47978;49.118;12.146;2022-10-22T05:33:49;97368.13;;;11.56;100.00
62025;BME280;47978;49.118;12.146;2022-10-22T05:36:17;97363.34;;;11.47;100.00
62025;BME280;47978;49.118;12.146;2022-10-22T05:38:44;97370.22;;;11.50;100.00
62025;BME280;47978;49.118;12.146;2022-10-22T05:41:13;97369.00;;;11.42;100.00
62025;BME280;47978;49.118;12.146;2022-10-22T05:43:40;97385.72;;;11.37;100.00
62025;BME280;47978;49.118;12.146;2022-10-22T05:46:08;97394.84;;;11.38;100.00
62025;BME280;47978;49.118;12.146;2022-10-22T05:48:35;97398.00;;;11.45;100.00
62025;BME280;47978;49.118;12.146;2022-10-22T05:51:03;97390.69;;;11.49;100.00
62025;BME280;47978;49.118;12.146;2022-10-22T05:53:30;97400.97;;;11.48;100.00
62025;BME280;47978;49.118;12.146;2022-10-22T05:55:59;97402.16;;;11.56;100.00
62025;BME280;47978;49.118;12.146;2022-10-22T05:58:27;97390.13;;;11.61;100.00
62025;BME280;47978;49.118;12.146;2022-10-22T06:00:54;97377.72;;;11.58;100.00
62025;BME280;47978;49.118;12.146;2022-10-22T06:03:25;97388.38;;;11.65;100.00
62025;BME280;47978;49.118;12.146;2022-10-22T06:05:52;97383.34;;;11.67;100.00
62025;BME280;47978;49.118;12.146;2022-10-22T06:08:19;97371.47;;;11.75;100.00
62025;BME280;47978;49.118;12.146;2022-10-22T06:10:46;97376.91;;;11.80;100.00
62025;BME280;47978;49.118;12.146;2022-10-22T06:13:12;97381.13;;;11.78;100.00
62025;BME280;47978;49.118;12.146;2022-10-22T06:15:40;97382.13;;;11.82;100.00
62025;BME280;47978;49.118;12.146;2022-10-22T06:18:07;97383.25;;;11.81;100.00
62025;BME280;47978;49.118;12.146;2022-10-22T06:20:34;97387.69;;;11.82;100.00
62025;BME280;47978;49.118;12.146;2022-10-22T06:23:00;97383.06;;;11.77;100.00
62025;BME280;47978;49.118;12.146;2022-10-22T06:25:27;97391.25;;;11.82;100.00
62025;BME280;47978;49.118;12.146;2022-10-22T06:27:53;97391.78;;;11.84;100.00
62025;BME280;47978;49.118;12.146;2022-10-22T06:30:20;97388.06;;;11.89;100.00
62025;BME280;47978;49.118;12.146;2022-10-22T06:32:48;97387.28;;;11.97;100.00
62025;BME280;47978;49.118;12.146;2022-10-22T06:35:14;97392.66;;;11.93;100.00
62025;BME280;47978;49.118;12.146;2022-10-22T06:37:41;97401.50;;;11.96;100.00
62025;BME280;47978;49.118;12.146;2022-10-22T06:40:09;97404.56;;;11.94;100.00
62025;BME280;47978;49.118;12.146;2022-10-22T06:42:36;97407.06;;;12.04;100.00
62025;BME280;47978;49.118;12.146;2022-10-22T06:45:03;97404.66;;;12.11;100.00
62025;BME280;47978;49.118;12.146;2022-10-22T06:47:30;97404.53;;;12.17;100.00
62025;BME280;47978;49.118;12.146;2022-10-22T06:49:58;97417.13;;;12.00;100.00
62025;BME280;47978;49.118;12.146;2022-10-22T06:52:25;97422.84;;;12.04;100.00
62025;BME280;47978;49.118;12.146;2022-10-22T06:54:51;97427.63;;;12.12;100.00
62025;BME280;47978;49.118;12.146;2022-10-22T06:57:18;97430.97;;;12.23;100.00
62025;BME280;47978;49.118;12.146;2022-10-22T06:59:45;97437.53;;;12.27;100.00
62025;BME280;47978;49.118;12.146;2022-10-22T07:02:12;97438.63;;;12.26;100.00
62025;BME280;47978;49.118;12.146;2022-10-22T07:04:38;97436.56;;;12.31;100.00
62025;BME280;47978;49.118;12.146;2022-10-22T07:07:06;97434.16;;;12.38;100.00
62025;BME280;47978;49.118;12.146;2022-10-22T07:09:33;97446.19;;;12.34;100.00
62025;BME280;47978;49.118;12.146;2022-10-22T07:11:59;97455.28;;;12.26;100.00
62025;BME280;47978;49.118;12.146;2022-10-22T07:14:26;97456.78;;;12.32;100.00
62025;BME280;47978;49.118;12.146;2022-10-22T07:16:52;97462.06;;;12.42;100.00
62025;BME280;47978;49.118;12.146;2022-10-22T07:19:19;97470.91;;;12.53;100.00
62025;BME280;47978;49.118;12.146;2022-10-22T07:21:46;97479.59;;;12.60;99.65
62025;BME280;47978;49.118;12.146;2022-10-22T07:24:13;97487.19;;;12.46;99.79
62025;BME280;47978;49.118;12.146;2022-10-22T07:26:40;97489.69;;;12.56;100.00
62025;BME280;47978;49.118;12.146;2022-10-22T07:29:07;97507.03;;;12.62;100.00
62025;BME280;47978;49.118;12.146;2022-10-22T07:31:33;97515.84;;;12.64;99.79
62025;BME280;47978;49.118;12.146;2022-10-22T07:34:00;97508.19;;;12.69;100.00
62025;BME280;47978;49.118;12.146;2022-10-22T07:36:26;97509.22;;;12.82;99.49
62025;BME280;47978;49.118;12.146;2022-10-22T07:38:55;97512.13;;;12.77;99.52
62025;BME280;47978;49.118;12.146;2022-10-22T07:41:23;97506.72;;;12.72;100.00
62025;BME280;47978;49.118;12.146;2022-10-22T07:43:50;97518.22;;;12.88;100.00
62025;BME280;47978;49.118;12.146;2022-10-22T07:46:16;97525.44;;;12.97;100.00
62025;BME280;47978;49.118;12.146;2022-10-22T07:48:43;97528.22;;;12.97;100.00
62025;BME280;47978;49.118;12.146;2022-10-22T07:51:10;97533.31;;;13.04;100.00
62025;BME280;47978;49.118;12.146;2022-10-22T07:53:37;97521.88;;;13.05;100.00
62025;BME280;47978;49.118;12.146;2022-10-22T07:56:03;97531.50;;;12.99;100.00
62025;BME280;47978;49.118;12.146;2022-10-22T07:58:32;97533.47;;;13.08;100.00
62025;BME280;47978;49.118;12.146;2022-10-22T08:01:00;97539.00;;;12.99;100.00
62025;BME280;47978;49.118;12.146;2022-10-22T08:03:28;97536.91;;;13.04;100.00
62025;BME280;47978;49.118;12.146;2022-10-22T08:05:54;97539.72;;;13.13;100.00
62025;BME280;47978;49.118;12.146;2022-10-22T08:08:21;97539.09;;;13.25;99.99
62025;BME280;47978;49.118;12.146;2022-10-22T08:10:56;97546.59;;;13.16;99.94
62025;BME280;47978;49.118;12.146;2022-10-22T08:13:23;97551.50;;;13.19;100.00
62025;BME280;47978;49.118;12.146;2022-10-22T08:15:51;97550.03;;;13.21;100.00
62025;BME280;47978;49.118;12.146;2022-10-22T08:18:21;97562.75;;;13.22;99.89
62025;BME280;47978;49.118;12.146;2022-10-22T08:20:48;97562.44;;;13.15;100.00
62025;BME280;47978;49.118;12.146;2022-10-22T08:23:15;97568.97;;;13.19;100.00
62025;BME280;47978;49.118;12.146;2022-10-22T08:25:41;97566.44;;;13.00;100.00
62025;BME280;47978;49.118;12.146;2022-10-22T08:28:08;97565.88;;;13.21;100.00
62025;BME280;47978;49.118;12.146;2022-10-22T08:30:35;97559.66;;;13.15;99.60
62025;BME280;47978;49.118;12.146;2022-10-22T08:33:03;97549.34;;;13.16;100.00
62025;BME280;47978;49.118;12.146;2022-10-22T08:35:30;97543.31;;;13.14;100.00
62025;BME280;47978;49.118;12.146;2022-10-22T08:37:57;97548.34;;;13.12;100.00
62025;BME280;47978;49.118;12.146;2022-10-22T08:40:28;97554.94;;;13.24;99.69
62025;BME280;47978;49.118;12.146;2022-10-22T08:43:12;97562.22;;;13.12;99.73
62025;BME280;47978;49.118;12.146;2022-10-22T08:45:49;97565.31;;;13.01;100.00
62025;BME280;47978;49.118;12.146;2022-10-22T08:48:32;97571.69;;;13.02;100.00
62025;BME280;47978;49.118;12.146;2022-10-22T08:50:59;97577.16;;;13.24;100.00
62025;BME280;47978;49.118;12.146;2022-10-22T08:53:30;97571.97;;;13.32;100.00
62025;BME280;47978;49.118;12.146;2022-10-22T08:55:59;97569.19;;;13.32;100.00
62025;BME280;47978;49.118;12.146;2022-10-22T08:58:33;97561.22;;;13.47;100.00
62025;BME280;47978;49.118;12.146;2022-10-22T09:01:05;97557.94;;;13.37;99.44
62025;BME280;47978;49.118;12.146;2022-10-22T09:03:43;97552.22;;;13.42;99.09
62025;BME280;47978;49.118;12.146;2022-10-22T09:06:13;97555.84;;;13.51;98.98
62025;BME280;47978;49.118;12.146;2022-10-22T09:08:42;97559.78;;;13.50;98.93
62025;BME280;47978;49.118;12.146;2022-10-22T09:11:17;97568.66;;;13.78;97.78
62025;BME280;47978;49.118;12.146;2022-10-22T09:13:45;97586.66;;;13.98;97.08
62025;BME280;47978;49.118;12.146;2022-10-22T09:16:16;97584.03;;;13.93;96.40
62025;BME280;47978;49.118;12.146;2022-10-22T09:18:54;97590.75;;;14.18;96.01
62025;BME280;47978;49.118;12.146;2022-10-22T09:21:28;97605.47;;;14.10;94.09
62025;BME280;47978;49.118;12.146;2022-10-22T09:24:03;97601.22;;;13.95;95.65
62025;BME280;47978;49.118;12.146;2022-10-22T09:26:32;97604.94;;;13.82;95.62
62025;BME280;47978;49.118;12.146;2022-10-22T09:29:00;97596.63;;;13.90;97.10
62025;BME280;47978;49.118;12.146;2022-10-22T09:31:29;97598.59;;;14.07;96.04
62025;BME280;47978;49.118;12.146;2022-10-22T09:33:58;97596.44;;;13.87;94.90
62025;BME280;47978;49.118;12.146;2022-10-22T09:36:27;97594.50;;;13.96;95.99
62025;BME280;47978;49.118;12.146;2022-10-22T09:38:54;97591.06;;;13.90;96.31
62025;BME280;47978;49.118;12.146;2022-10-22T09:41:24;97591.56;;;14.10;96.48
62025;BME280;47978;49.118;12.146;2022-10-22T09:43:51;97595.00;;;14.15;95.53
62025;BME280;47978;49.118;12.146;2022-10-22T09:46:19;97604.97;;;14.16;93.92
62025;BME280;47978;49.118;12.146;2022-10-22T09:48:47;97607.59;;;14.13;94.08
62025;BME280;47978;49.118;12.146;2022-10-22T09:51:20;97616.09;;;14.16;93.12
62025;BME280;47978;49.118;12.146;2022-10-22T09:53:54;97614.91;;;13.91;94.48
62025;BME280;47978;49.118;12.146;2022-10-22T09:56:25;97620.97;;;13.93;95.71
62025;BME280;47978;49.118;12.146;2022-10-22T09:58:51;97621.19;;;14.14;94.99
62025;BME280;47978;49.118;12.146;2022-10-22T10:01:24;97624.94;;;14.18;94.66
62025;BME280;47978;49.118;12.146;2022-10-22T10:03:51;97624.28;;;14.30;92.89
62025;BME280;47978;49.118;12.146;2022-10-22T10:06:21;97620.53;;;14.17;94.36
62025;BME280;47978;49.118;12.146;2022-10-22T10:08:48;97622.16;;;14.01;93.63
62025;BME280;47978;49.118;12.146;2022-10-22T10:11:21;97620.50;;;14.00;93.21
62025;BME280;47978;49.118;12.146;2022-10-22T10:14:04;97630.66;;;14.05;92.51
62025;BME280;47978;49.118;12.146;2022-10-22T10:16:50;97629.03;;;14.12;93.55
62025;BME280;47978;49.118;12.146;2022-10-22T10:19:37;97630.50;;;14.27;93.31
62025;BME280;47978;49.118;12.146;2022-10-22T10:22:15;97635.75;;;14.29;92.80
62025;BME280;47978;49.118;12.146;2022-10-22T10:24:55;97633.28;;;14.45;93.21
62025;BME280;47978;49.118;12.146;2022-10-22T10:27:27;97628.38;;;14.50;89.78
62025;BME280;47978;49.118;12.146;2022-10-22T10:30:02;97624.28;;;14.56;91.85
62025;BME280;47978;49.118;12.146;2022-10-22T10:32:47;97622.66;;;14.64;90.72
62025;BME280;47978;49.118;12.146;2022-10-22T10:35:23;97624.41;;;14.95;89.64
62025;BME280;47978;49.118;12.146;2022-10-22T10:38:05;97630.63;;;14.92;88.77
62025;BME280;47978;49.118;12.146;2022-10-22T10:40:39;97629.47;;;15.01;88.51
62025;BME280;47978;49.118;12.146;2022-10-22T10:43:14;97616.50;;;15.14;88.08
62025;BME280;47978;49.118;12.146;2022-10-22T10:45:53;97622.03;;;15.23;88.28
62025;BME280;47978;49.118;12.146;2022-10-22T10:48:36;97614.47;;;15.23;87.06
62025;BME280;47978;49.118;12.146;2022-10-22T10:51:18;97609.50;;;15.38;86.21
62025;BME280;47978;49.118;12.146;2022-10-22T10:53:56;97605.31;;;15.52;86.11
62025;BME280;47978;49.118;12.146;2022-10-22T10:56:34;97602.34;;;15.58;85.37
62025;BME280;47978;49.118;12.146;2022-10-22T10:59:15;97603.47;;;15.65;84.71
62025;BME280;47978;49.118;12.146;2022-10-22T11:01:55;97603.97;;;15.59;83.70
62025;BME280;47978;49.118;12.146;2022-10-22T11:07:32;97605.31;;;15.52;85.31
62025;BME280;47978;49.118;12.146;2022-10-22T11:10:03;97608.56;;;15.63;84.57
62025;BME280;47978;49.118;12.146;2022-10-22T11:12:38;97604.28;;;15.66;85.05
62025;BME280;47978;49.118;12.146;2022-10-22T11:15:13;97606.28;;;15.57;84.92
62025;BME280;47978;49.118;12.146;2022-10-22T11:17:45;97609.22;;;15.60;83.70
62025;BME280;47978;49.118;12.146;2022-10-22T11:20:16;97603.28;;;15.70;83.44
62025;BME280;47978;49.118;12.146;2022-10-22T11:22:47;97608.34;;;15.77;83.00
62025;BME280;47978;49.118;12.146;2022-10-22T11:25:40;97615.53;;;15.78;82.45
62025;BME280;47978;49.118;12.146;2022-10-22T11:28:13;97610.28;;;15.77;82.58
62025;BME280;47978;49.118;12.146;2022-10-22T11:30:44;97602.66;;;15.94;80.65
62025;BME280;47978;49.118;12.146;2022-10-22T11:33:17;97603.06;;;16.05;78.67
62025;BME280;47978;49.118;12.146;2022-10-22T11:35:45;97605.97;;;15.88;78.45
62025;BME280;47978;49.118;12.146;2022-10-22T11:38:15;97608.56;;;15.93;79.16
62025;BME280;47978;49.118;12.146;2022-10-22T11:40:45;97604.41;;;15.99;79.70
62025;BME280;47978;49.118;12.146;2022-10-22T11:43:25;97605.88;;;16.05;79.39
62025;BME280;47978;49.118;12.146;2022-10-22T11:45:57;97610.41;;;16.10;79.73
62025;BME280;47978;49.118;12.146;2022-10-22T11:48:27;97607.81;;;16.05;80.17
62025;BME280;47978;49.118;12.146;2022-10-22T11:51:00;97606.53;;;16.02;80.04
62025;BME280;47978;49.118;12.146;2022-10-22T11:53:31;97598.03;;;15.99;79.17
62025;BME280;47978;49.118;12.146;2022-10-22T11:56:03;97597.88;;;15.95;80.02
62025;BME280;47978;49.118;12.146;2022-10-22T11:58:47;97603.66;;;15.90;80.92
62025;BME280;47978;49.118;12.146;2022-10-22T12:01:25;97598.69;;;15.95;80.14
62025;BME280;47978;49.118;12.146;2022-10-22T12:04:20;97592.38;;;16.07;80.03
62025;BME280;47978;49.118;12.146;2022-10-22T12:06:58;97593.72;;;16.22;79.67
62025;BME280;47978;49.118;12.146;2022-10-22T12:09:28;97587.25;;;16.30;78.53
62025;BME280;47978;49.118;12.146;2022-10-22T12:12:02;97587.06;;;16.35;78.45
62025;BME280;47978;49.118;12.146;2022-10-22T12:14:32;97593.19;;;16.29;77.38
62025;BME280;47978;49.118;12.146;2022-10-22T12:17:03;97590.63;;;16.24;76.80
62025;BME280;47978;49.118;12.146;2022-10-22T12:19:36;97590.22;;;16.34;77.36
62025;BME280;47978;49.118;12.146;2022-10-22T12:22:12;97584.47;;;16.51;76.53
62025;BME280;47978;49.118;12.146;2022-10-22T12:24:43;97584.59;;;16.55;75.98
62025;BME280;47978;49.118;12.146;2022-10-22T12:27:16;97583.56;;;16.59;76.01
62025;BME280;47978;49.118;12.146;2022-10-22T12:29:53;97579.81;;;16.55;77.05
62025;BME280;47978;49.118;12.146;2022-10-22T12:32:20;97579.69;;;16.52;75.66
62025;BME280;47978;49.118;12.146;2022-10-22T12:34:47;97583.38;;;16.44;76.98
62025;BME280;47978;49.118;12.146;2022-10-22T12:37:16;97575.81;;;16.44;77.03
62025;BME280;47978;49.118;12.146;2022-10-22T12:39:45;97572.94;;;16.53;76.62
62025;BME280;47978;49.118;12.146;2022-10-22T12:42:13;97575.19;;;16.59;77.37
62025;BME280;47978;49.118;12.146;2022-10-22T12:44:41;97567.75;;;16.63;76.45
62025;BME280;47978;49.118;12.146;2022-10-22T12:47:13;97571.63;;;16.71;76.51
62025;BME280;47978;49.118;12.146;2022-10-22T12:49:42;97572.41;;;16.59;77.38
62025;BME280;47978;49.118;12.146;2022-10-22T12:52:12;97562.22;;;16.42;77.01
62025;BME280;47978;49.118;12.146;2022-10-22T12:54:40;97566.16;;;16.41;77.53
62025;BME280;47978;49.118;12.146;2022-10-22T12:57:12;97565.38;;;16.53;76.58
62025;BME280;47978;49.118;12.146;2022-10-22T12:59:41;97566.75;;;16.47;76.94
62025;BME280;47978;49.118;12.146;2022-10-22T13:02:17;97558.88;;;16.49;76.62